createdAt,value
2018-06-16T00:00:12.171Z,15.90
2018-06-16T00:02:40.497Z,15.90
2018-06-16T00:05:08.813Z,15.80
2018-06-16T00:07:37.177Z,15.80
2018-06-16T00:10:05.553Z,15.60
2018-06-16T00:12:33.915Z,15.50
2018-06-16T00:15:02.217Z,15.60
2018-06-16T00:17:30.545Z,15.70
2018-06-16T00:19:58.847Z,15.70
2018-06-16T00:22:27.187Z,15.80
2018-06-16T00:25:00.123Z,15.80
2018-06-16T00:27:29.441Z,15.60
2018-06-16T00:29:58.204Z,15.50
2018-06-16T00:32:26.808Z,15.50
2018-06-16T00:34:55.121Z,15.60
2018-06-16T00:37:24.080Z,15.60
2018-06-16T00:39:52.500Z,15.60
2018-06-16T00:42:20.821Z,15.70
2018-06-16T00:44:49.120Z,15.70
2018-06-16T00:47:17.651Z,15.60
2018-06-16T00:49:45.958Z,15.40
2018-06-16T00:52:14.297Z,15.40
2018-06-16T00:54:42.589Z,15.30
2018-06-16T00:57:22.329Z,15.30
2018-06-16T00:59:50.618Z,15.10
2018-06-16T01:02:18.949Z,15.10
2018-06-16T01:07:15.341Z,15.00
2018-06-16T01:09:43.650Z,14.90
2018-06-16T01:12:11.964Z,14.90
2018-06-16T01:14:40.259Z,14.90
2018-06-16T01:17:08.585Z,14.80
2018-06-16T01:19:36.896Z,14.80
2018-06-16T01:22:05.209Z,14.70
2018-06-16T01:24:33.552Z,14.70
2018-06-16T01:27:01.850Z,14.90
2018-06-16T01:29:30.177Z,14.90
2018-06-16T01:31:58.472Z,14.90
2018-06-16T01:34:26.804Z,14.90
2018-06-16T01:36:55.110Z,14.70
2018-06-16T01:39:23.453Z,14.60
2018-06-16T01:41:51.793Z,14.60
2018-06-16T01:44:20.114Z,14.50
2018-06-16T01:46:48.416Z,14.40
2018-06-16T01:49:16.750Z,14.30
2018-06-16T01:51:45.081Z,14.30
2018-06-16T01:54:13.409Z,14.30
2018-06-16T01:56:41.704Z,14.30
2018-06-16T01:59:10.038Z,14.20
2018-06-16T02:01:38.344Z,14.20
2018-06-16T02:04:06.656Z,14.40
2018-06-16T02:06:34.955Z,14.40
2018-06-16T02:09:04.005Z,14.30
2018-06-16T02:11:32.304Z,14.20
2018-06-16T02:14:00.618Z,14.20
2018-06-16T02:16:28.908Z,14.10
2018-06-16T02:18:57.223Z,14.10
2018-06-16T02:21:25.644Z,14.00
2018-06-16T02:23:54.014Z,14.10
2018-06-16T02:26:22.341Z,14.20
2018-06-16T02:28:50.683Z,14.20
2018-06-16T02:31:18.987Z,14.20
2018-06-16T02:33:47.332Z,14.20
2018-06-16T02:36:15.672Z,14.30
2018-06-16T02:38:43.990Z,14.40
2018-06-16T02:41:12.286Z,14.40
2018-06-16T02:43:40.615Z,14.40
2018-06-16T02:46:09.016Z,14.50
2018-06-16T02:48:37.348Z,14.60
2018-06-16T02:51:05.665Z,14.60
2018-06-16T02:53:33.998Z,14.50
2018-06-16T02:56:02.302Z,14.40
2018-06-16T02:58:30.597Z,14.30
2018-06-16T03:00:58.937Z,14.40
2018-06-16T03:03:27.229Z,14.50
2018-06-16T03:05:55.585Z,14.60
2018-06-16T03:08:23.885Z,14.60
2018-06-16T03:10:52.437Z,14.60
2018-06-16T03:13:20.752Z,14.60
2018-06-16T03:15:49.067Z,14.70
2018-06-16T03:18:17.361Z,14.80
2018-06-16T03:20:45.712Z,14.70
2018-06-16T03:23:14.028Z,14.60
2018-06-16T03:25:42.372Z,14.50
2018-06-16T03:28:10.677Z,14.40
2018-06-16T03:30:38.984Z,14.40
2018-06-16T03:33:07.287Z,14.30
2018-06-16T03:35:35.639Z,14.40
2018-06-16T03:38:03.947Z,14.40
2018-06-16T03:40:32.261Z,14.40
2018-06-16T03:43:00.561Z,14.30
2018-06-16T03:45:28.898Z,14.30
2018-06-16T03:47:57.272Z,14.30
2018-06-16T03:50:25.580Z,14.40
2018-06-16T03:52:53.873Z,14.30
2018-06-16T03:55:22.193Z,14.40
2018-06-16T03:57:50.520Z,14.40
2018-06-16T04:00:18.852Z,14.40
2018-06-16T04:02:47.152Z,14.40
2018-06-16T04:05:15.481Z,14.50
2018-06-16T04:07:43.772Z,14.40
2018-06-16T04:10:12.099Z,14.40
2018-06-16T04:12:40.401Z,14.50
2018-06-16T04:15:08.740Z,14.40
2018-06-16T04:17:37.059Z,14.40
2018-06-16T04:20:05.412Z,14.40
2018-06-16T04:25:01.777Z,14.50
2018-06-16T04:27:30.136Z,14.60
2018-06-16T04:29:58.404Z,14.60
2018-06-16T04:32:26.725Z,14.70
2018-06-16T04:34:55.097Z,14.70
2018-06-16T04:37:23.373Z,14.70
2018-06-16T04:39:51.664Z,14.80
2018-06-16T04:42:19.986Z,14.80
2018-06-16T04:44:48.311Z,15.00
2018-06-16T04:47:16.694Z,15.00
2018-06-16T04:49:45.013Z,15.00
2018-06-16T04:52:13.337Z,15.00
2018-06-16T04:54:41.645Z,15.10
2018-06-16T04:57:09.961Z,15.10
2018-06-16T04:59:38.262Z,15.20
2018-06-16T05:02:06.741Z,15.40
2018-06-16T05:04:35.033Z,15.40
2018-06-16T05:07:03.348Z,15.50
2018-06-16T05:09:31.645Z,15.60
2018-06-16T05:11:59.977Z,15.80
2018-06-16T05:14:28.285Z,15.90
2018-06-16T05:16:56.650Z,15.90
2018-06-16T05:19:24.920Z,15.90
2018-06-16T05:21:53.396Z,16.00
2018-06-16T05:24:21.661Z,16.00
2018-06-16T05:26:49.997Z,16.00
2018-06-16T05:29:18.311Z,16.10
2018-06-16T05:31:46.637Z,16.10
2018-06-16T05:34:14.924Z,16.10
2018-06-16T05:36:43.241Z,16.20
2018-06-16T05:39:11.620Z,16.20
2018-06-16T05:41:39.938Z,16.20
2018-06-16T05:44:08.275Z,16.30
2018-06-16T05:46:36.583Z,16.40
2018-06-16T05:49:04.930Z,16.40
2018-06-16T05:51:33.253Z,16.40
2018-06-16T05:54:01.608Z,16.40
2018-06-16T05:56:29.904Z,16.50
2018-06-16T05:58:58.212Z,16.50
2018-06-16T06:01:26.529Z,16.60
2018-06-16T06:03:55.093Z,16.60
2018-06-16T06:06:23.556Z,16.70
2018-06-16T06:08:51.953Z,16.90
2018-06-16T06:11:20.249Z,17.00
2018-06-16T06:13:48.576Z,17.10
2018-06-16T06:16:16.860Z,17.10
2018-06-16T06:18:45.212Z,17.10
2018-06-16T06:21:13.519Z,17.20
2018-06-16T06:23:41.850Z,17.40
2018-06-16T06:26:10.166Z,17.40
2018-06-16T06:28:38.708Z,17.60
2018-06-16T06:31:06.997Z,17.50
2018-06-16T06:33:35.345Z,17.40
2018-06-16T06:36:03.653Z,17.50
2018-06-16T06:38:31.974Z,17.50
2018-06-16T06:41:00.373Z,17.50
2018-06-16T06:43:28.725Z,17.50
2018-06-16T06:45:57.006Z,17.60
2018-06-16T06:48:25.425Z,17.60
2018-06-16T06:50:54.332Z,17.70
2018-06-16T06:53:22.713Z,17.70
2018-06-16T06:55:51.146Z,17.70
2018-06-16T06:58:19.469Z,17.90
2018-06-16T07:00:47.765Z,18.10
2018-06-16T07:03:16.105Z,18.20
2018-06-16T07:05:44.413Z,18.20
2018-06-16T07:08:12.754Z,18.40
2018-06-16T07:10:41.094Z,18.50
2018-06-16T07:13:09.406Z,18.70
2018-06-16T07:15:37.717Z,19.20
2018-06-16T07:18:06.052Z,19.60
2018-06-16T07:20:34.421Z,19.60
2018-06-16T07:23:02.752Z,19.70
2018-06-16T07:25:31.085Z,19.60
2018-06-16T07:27:59.405Z,19.70
2018-06-16T07:30:27.700Z,19.80
2018-06-16T07:32:56.017Z,19.80
2018-06-16T07:35:24.312Z,20.00
2018-06-16T07:37:52.628Z,20.20
2018-06-16T07:40:20.937Z,20.40
2018-06-16T07:42:50.445Z,20.40
2018-06-16T07:45:18.792Z,20.30
2018-06-16T07:47:47.659Z,20.20
2018-06-16T07:50:16.617Z,20.30
2018-06-16T07:52:44.925Z,20.70
2018-06-16T07:55:13.361Z,21.10
2018-06-16T07:57:41.658Z,21.40
2018-06-16T08:00:10.181Z,21.60
2018-06-16T08:02:38.805Z,21.60
2018-06-16T08:05:07.400Z,21.40
2018-06-16T08:07:35.706Z,21.50
2018-06-16T08:10:04.082Z,22.00
2018-06-16T08:12:32.401Z,22.10
2018-06-16T08:15:00.821Z,22.40
2018-06-16T08:17:29.126Z,22.80
2018-06-16T08:19:57.443Z,23.10
2018-06-16T08:22:32.185Z,23.20
2018-06-16T08:25:00.884Z,23.80
2018-06-16T08:27:29.261Z,23.70
2018-06-16T08:29:57.580Z,24.20
2018-06-16T08:32:25.941Z,24.30
2018-06-16T08:34:54.257Z,24.70
2018-06-16T08:37:22.556Z,23.90
2018-06-16T08:39:50.868Z,24.10
2018-06-16T08:44:47.255Z,24.60
2018-06-16T08:47:15.552Z,24.60
2018-06-16T08:49:43.869Z,24.60
2018-06-16T08:52:12.253Z,24.60
2018-06-16T08:54:40.626Z,24.80
2018-06-16T08:57:09.120Z,24.90
2018-06-16T08:59:37.492Z,25.10
2018-06-16T09:02:05.897Z,25.10
2018-06-16T09:04:34.286Z,24.60
2018-06-16T09:07:02.585Z,24.30
2018-06-16T09:09:30.930Z,23.90
2018-06-16T09:11:59.269Z,23.80
2018-06-16T09:14:27.589Z,23.60
2018-06-16T09:16:55.882Z,23.70
2018-06-16T09:19:24.193Z,24.00
2018-06-16T09:21:52.493Z,24.40
2018-06-16T09:24:20.813Z,24.20
2018-06-16T09:26:49.133Z,23.70
2018-06-16T09:29:17.452Z,23.70
2018-06-16T09:31:45.755Z,23.50
2018-06-16T09:34:14.104Z,23.50
2018-06-16T09:36:42.439Z,23.60
2018-06-16T09:39:11.692Z,23.80
2018-06-16T09:41:40.261Z,24.10
2018-06-16T09:44:09.055Z,24.40
2018-06-16T09:46:37.373Z,24.30
2018-06-16T09:49:05.676Z,24.10
2018-06-16T09:51:33.995Z,23.90
2018-06-16T09:54:02.381Z,23.80
2018-06-16T09:56:30.680Z,24.00
2018-06-16T09:58:58.977Z,24.30
2018-06-16T10:01:27.301Z,24.30
2018-06-16T10:03:55.620Z,24.60
2018-06-16T10:06:28.351Z,24.60
2018-06-16T10:08:56.663Z,24.60
2018-06-16T10:11:25.068Z,24.90
2018-06-16T10:13:53.361Z,25.00
2018-06-16T10:16:21.752Z,24.90
2018-06-16T10:18:50.249Z,24.70
2018-06-16T10:21:18.709Z,24.40
2018-06-16T10:26:15.045Z,24.80
2018-06-16T10:28:43.357Z,25.20
2018-06-16T10:31:11.664Z,25.30
2018-06-16T10:33:39.948Z,25.20
2018-06-16T10:36:08.262Z,25.50
2018-06-16T10:38:36.637Z,26.10
2018-06-16T10:41:04.960Z,25.80
2018-06-16T10:43:33.253Z,25.40
2018-06-16T10:46:01.613Z,25.30
2018-06-16T10:48:29.905Z,26.10
2018-06-16T10:50:58.221Z,26.00
2018-06-16T10:53:26.544Z,26.40
2018-06-16T10:55:54.857Z,26.90
2018-06-16T10:58:23.149Z,26.70
2018-06-16T11:00:51.480Z,27.10
2018-06-16T11:03:19.782Z,27.50
2018-06-16T11:05:48.096Z,28.00
2018-06-16T11:08:16.384Z,27.40
2018-06-16T11:10:44.680Z,26.60
2018-06-16T11:13:13.551Z,26.30
2018-06-16T11:15:41.860Z,26.40
2018-06-16T11:18:10.160Z,26.60
2018-06-16T11:20:38.449Z,26.50
2018-06-16T11:23:06.776Z,26.10
2018-06-16T11:25:35.093Z,25.80
2018-06-16T11:28:03.417Z,25.80
2018-06-16T11:30:31.772Z,26.30
2018-06-16T11:33:00.034Z,26.70
2018-06-16T11:35:28.357Z,26.30
2018-06-16T11:37:56.694Z,25.60
2018-06-16T11:40:24.981Z,25.10
2018-06-16T11:42:53.332Z,25.00
2018-06-16T11:45:21.640Z,24.50
2018-06-16T11:47:50.057Z,24.30
2018-06-16T11:50:18.705Z,24.40
2018-06-16T11:52:47.041Z,24.50
2018-06-16T11:55:15.330Z,25.20
2018-06-16T11:57:43.679Z,25.70
2018-06-16T12:00:12.257Z,26.20
2018-06-16T12:02:40.782Z,26.10
2018-06-16T12:05:09.101Z,25.70
2018-06-16T12:07:37.421Z,25.20
2018-06-16T12:10:05.836Z,24.90
2018-06-16T12:12:34.209Z,24.70
2018-06-16T12:15:03.169Z,25.10
2018-06-16T12:17:31.496Z,25.60
2018-06-16T12:19:59.818Z,25.90
2018-06-16T12:22:28.133Z,25.50
2018-06-16T12:24:56.508Z,25.30
2018-06-16T12:27:25.890Z,24.90
2018-06-16T12:29:54.191Z,24.70
2018-06-16T12:32:22.521Z,25.20
2018-06-16T12:34:51.948Z,26.00
2018-06-16T12:37:20.281Z,26.40
2018-06-16T12:39:48.584Z,26.70
2018-06-16T12:44:45.065Z,26.60
2018-06-16T12:47:13.392Z,26.40
2018-06-16T12:49:41.684Z,25.70
2018-06-16T12:52:10.157Z,25.60
2018-06-16T12:54:38.474Z,25.90
2018-06-16T12:57:06.941Z,25.50
2018-06-16T12:59:35.246Z,25.40
2018-06-16T13:02:03.589Z,25.60
2018-06-16T13:04:31.934Z,25.60
2018-06-16T13:07:00.236Z,25.40
2018-06-16T13:09:28.559Z,25.70
2018-06-16T13:11:56.944Z,25.80
2018-06-16T13:14:25.261Z,26.20
2018-06-16T13:16:53.557Z,26.30
2018-06-16T13:19:21.860Z,26.40
2018-06-16T13:21:50.154Z,26.30
2018-06-16T13:24:18.481Z,26.60
2018-06-16T13:26:46.909Z,26.80
2018-06-16T13:29:15.341Z,26.60
2018-06-16T13:31:43.593Z,26.30
2018-06-16T13:34:11.917Z,25.90
2018-06-16T13:36:40.302Z,25.70
2018-06-16T13:39:10.133Z,25.70
2018-06-16T13:41:38.474Z,26.00
2018-06-16T13:44:06.812Z,26.00
2018-06-16T13:46:35.255Z,26.10
2018-06-16T13:49:03.577Z,26.10
2018-06-16T13:51:31.872Z,26.10
2018-06-16T13:54:00.182Z,26.10
2018-06-16T13:56:28.485Z,26.00
2018-06-16T13:58:56.792Z,25.50
2018-06-16T14:01:25.081Z,25.10
2018-06-16T14:03:53.595Z,24.80
2018-06-16T14:06:21.900Z,24.60
2018-06-16T14:08:50.232Z,24.40
2018-06-16T14:11:18.630Z,24.40
2018-06-16T14:13:47.149Z,24.80
2018-06-16T14:16:15.515Z,25.10
2018-06-16T14:18:43.848Z,25.00
2018-06-16T14:21:12.145Z,24.90
2018-06-16T14:23:40.465Z,25.00
2018-06-16T14:26:08.778Z,25.10
2018-06-16T14:28:37.097Z,25.40
2018-06-16T14:31:05.405Z,25.50
2018-06-16T14:33:33.727Z,25.50
2018-06-16T14:36:02.039Z,25.50
2018-06-16T14:38:30.344Z,25.30
2018-06-16T14:40:58.702Z,25.10
2018-06-16T14:43:27.013Z,25.20
2018-06-16T14:45:55.300Z,25.20
2018-06-16T14:48:23.677Z,25.30
2018-06-16T14:50:51.999Z,25.30
2018-06-16T14:53:20.339Z,25.20
2018-06-16T14:55:48.610Z,25.40
2018-06-16T14:58:16.896Z,25.20
2018-06-16T15:00:45.204Z,25.20
2018-06-16T15:03:13.505Z,25.10
2018-06-16T15:05:41.827Z,25.20
2018-06-16T15:08:10.125Z,25.10
2018-06-16T15:10:38.437Z,24.80
2018-06-16T15:13:06.745Z,24.60
2018-06-16T15:15:35.099Z,24.70
2018-06-16T15:18:03.418Z,24.70
2018-06-16T15:20:31.733Z,24.80
2018-06-16T15:23:00.037Z,25.10
2018-06-16T15:25:28.353Z,25.30
2018-06-16T15:27:56.800Z,25.40
2018-06-16T15:30:25.169Z,25.50
2018-06-16T15:32:53.488Z,25.40
2018-06-16T15:35:21.797Z,25.10
2018-06-16T15:37:50.094Z,25.10
2018-06-16T15:40:18.519Z,25.10
2018-06-16T15:42:46.825Z,25.00
2018-06-16T15:45:15.157Z,24.90
2018-06-16T15:47:43.460Z,24.80
2018-06-16T15:50:11.774Z,24.80
2018-06-16T15:52:40.106Z,24.80
2018-06-16T15:55:08.438Z,24.70
2018-06-16T15:57:36.749Z,24.60
2018-06-16T16:00:05.998Z,24.70
2018-06-16T16:02:34.311Z,24.60
2018-06-16T16:05:02.637Z,24.40
2018-06-16T16:07:30.970Z,24.40
2018-06-16T16:09:59.297Z,24.40
2018-06-16T16:12:27.593Z,24.20
2018-06-16T16:14:55.922Z,24.30
2018-06-16T16:17:24.221Z,24.10
2018-06-16T16:19:52.541Z,24.20
2018-06-16T16:22:20.853Z,24.10
2018-06-16T16:24:49.264Z,24.20
2018-06-16T16:27:17.624Z,24.00
2018-06-16T16:29:45.937Z,24.00
2018-06-16T16:32:14.342Z,24.00
2018-06-16T16:34:42.652Z,24.00
2018-06-16T16:37:10.969Z,24.10
2018-06-16T16:39:39.269Z,24.20
2018-06-16T16:42:07.585Z,24.20
2018-06-16T16:44:35.925Z,24.10
2018-06-16T16:47:04.245Z,24.10
2018-06-16T16:49:32.552Z,24.10
2018-06-16T16:52:00.885Z,24.10
2018-06-16T16:54:29.182Z,24.20
2018-06-16T16:56:57.484Z,24.10
2018-06-16T16:59:25.793Z,24.00
2018-06-16T17:01:54.125Z,24.00
2018-06-16T17:04:22.424Z,23.90
2018-06-16T17:06:50.721Z,23.70
2018-06-16T17:09:19.043Z,23.60
2018-06-16T17:11:47.365Z,23.60
2018-06-16T17:14:15.665Z,23.60
2018-06-16T17:16:43.984Z,23.70
2018-06-16T17:21:40.335Z,23.50
2018-06-16T17:24:08.641Z,23.50
2018-06-16T17:26:36.966Z,23.40
2018-06-16T17:29:05.597Z,23.40
2018-06-16T17:31:34.302Z,23.30
2018-06-16T17:34:02.592Z,23.30
2018-06-16T17:36:30.905Z,23.30
2018-06-16T17:38:59.224Z,23.20
2018-06-16T17:41:27.537Z,23.10
2018-06-16T17:43:55.835Z,23.10
2018-06-16T17:46:24.144Z,23.00
2018-06-16T17:48:52.441Z,23.00
2018-06-16T17:51:20.767Z,23.00
2018-06-16T17:53:49.062Z,22.90
2018-06-16T17:56:17.397Z,22.70
2018-06-16T17:58:45.708Z,22.70
2018-06-16T18:01:14.120Z,22.70
2018-06-16T18:03:42.413Z,22.70
2018-06-16T18:06:10.732Z,22.60
2018-06-16T18:08:39.024Z,22.40
2018-06-16T18:11:07.310Z,22.30
2018-06-16T18:13:35.624Z,22.20
2018-06-16T18:16:03.925Z,22.20
2018-06-16T18:18:32.240Z,22.10
2018-06-16T18:21:00.539Z,22.20
2018-06-16T18:23:28.853Z,22.10
2018-06-16T18:25:57.164Z,22.00
2018-06-16T18:28:25.588Z,21.80
2018-06-16T18:30:53.886Z,21.80
2018-06-16T18:33:22.222Z,21.60
2018-06-16T18:35:50.616Z,21.60
2018-06-16T18:38:19.413Z,21.50
2018-06-16T18:40:47.719Z,21.40
2018-06-16T18:45:49.657Z,21.30
2018-06-16T18:48:17.996Z,21.20
2018-06-16T18:50:46.285Z,21.00
2018-06-16T18:53:14.606Z,20.90
2018-06-16T18:55:42.896Z,20.90
2018-06-16T18:58:11.209Z,20.80
2018-06-16T19:00:39.505Z,20.80
2018-06-16T19:03:07.819Z,20.70
2018-06-16T19:05:36.115Z,20.60
2018-06-16T19:08:04.652Z,20.50
2018-06-16T19:10:32.980Z,20.60
2018-06-16T19:13:01.297Z,20.50
2018-06-16T19:15:29.589Z,20.40
2018-06-16T19:17:57.906Z,20.40
2018-06-16T19:20:26.217Z,20.50
2018-06-16T19:22:54.529Z,20.70
2018-06-16T19:25:22.828Z,20.80
2018-06-16T19:27:51.157Z,20.70
2018-06-16T19:30:19.473Z,20.60
2018-06-16T19:32:47.928Z,20.40
2018-06-16T19:35:16.233Z,20.30
2018-06-16T19:37:44.548Z,20.00
2018-06-16T19:40:12.843Z,19.80
2018-06-16T19:42:41.162Z,19.70
2018-06-16T19:45:09.463Z,19.50
2018-06-16T19:47:37.777Z,19.30
2018-06-16T19:50:06.130Z,19.30
2018-06-16T19:52:34.434Z,19.20
2018-06-16T19:55:02.756Z,19.20
2018-06-16T19:57:31.076Z,19.20
2018-06-16T19:59:59.393Z,19.20
2018-06-16T20:02:27.741Z,19.20
2018-06-16T20:04:56.028Z,19.20
2018-06-16T20:07:24.469Z,19.20
2018-06-16T20:09:52.973Z,19.20
2018-06-16T20:12:21.282Z,19.30
2018-06-16T20:14:49.601Z,19.20
2018-06-16T20:17:17.906Z,19.10
2018-06-16T20:19:46.260Z,19.00
2018-06-16T20:22:14.575Z,19.00
2018-06-16T20:24:42.889Z,18.90
2018-06-16T20:27:11.222Z,18.90
2018-06-16T20:29:39.573Z,19.00
2018-06-16T20:32:08.012Z,18.90
2018-06-16T20:34:36.321Z,18.90
2018-06-16T20:37:04.630Z,18.90
2018-06-16T20:39:32.969Z,19.00
2018-06-16T20:42:01.261Z,18.90
2018-06-16T20:44:29.577Z,18.80
2018-06-16T20:46:58.121Z,18.80
2018-06-16T20:49:26.708Z,18.80
2018-06-16T20:51:55.030Z,18.70
2018-06-16T20:54:23.337Z,18.70
2018-06-16T20:56:51.637Z,18.80
2018-06-16T20:59:19.965Z,18.80
2018-06-16T21:01:48.258Z,18.90
2018-06-16T21:04:16.609Z,19.00
2018-06-16T21:06:44.900Z,19.00
2018-06-16T21:09:19.978Z,19.10
2018-06-16T21:11:48.276Z,19.20
2018-06-16T21:14:16.581Z,19.30
2018-06-16T21:16:44.902Z,19.40
2018-06-16T21:19:13.213Z,19.40
2018-06-16T21:21:41.518Z,19.40
2018-06-16T21:24:09.833Z,19.30
2018-06-16T21:26:38.145Z,19.30
2018-06-16T21:29:06.480Z,19.30
2018-06-16T21:31:34.793Z,19.30
2018-06-16T21:34:03.118Z,19.10
2018-06-16T21:36:31.413Z,19.10
2018-06-16T21:38:59.716Z,18.90
2018-06-16T21:41:28.118Z,18.60
2018-06-16T21:43:56.445Z,18.60
2018-06-16T21:46:24.777Z,18.40
2018-06-16T21:48:53.128Z,18.20
2018-06-16T21:51:21.425Z,18.20
2018-06-16T21:53:49.739Z,18.20
2018-06-16T21:56:18.030Z,18.10
2018-06-16T21:58:46.375Z,18.00
2018-06-16T22:01:14.712Z,18.00
2018-06-16T22:03:43.054Z,17.80
2018-06-16T22:06:12.313Z,17.70
2018-06-16T22:08:40.694Z,17.60
2018-06-16T22:11:09.017Z,17.50
2018-06-16T22:13:37.393Z,17.40
2018-06-16T22:16:05.711Z,17.30
2018-06-16T22:18:34.016Z,17.40
2018-06-16T22:21:02.333Z,17.30
2018-06-16T22:23:30.661Z,17.40
2018-06-16T22:25:59.045Z,17.40
2018-06-16T22:28:27.340Z,17.50
2018-06-16T22:30:55.689Z,17.70
2018-06-16T22:33:24.037Z,17.80
2018-06-16T22:35:52.377Z,17.80
2018-06-16T22:38:21.561Z,17.80
2018-06-16T22:40:49.894Z,17.70
2018-06-16T22:43:18.185Z,17.60
2018-06-16T22:45:46.505Z,17.60
2018-06-16T22:48:14.808Z,17.50
2018-06-16T22:50:43.145Z,17.50
2018-06-16T22:53:11.515Z,17.40
2018-06-16T22:55:39.828Z,17.30
2018-06-16T22:58:08.130Z,17.30
2018-06-16T23:00:36.477Z,17.40
2018-06-16T23:03:04.818Z,17.40
2018-06-16T23:05:33.145Z,17.30
2018-06-16T23:08:01.442Z,17.30
2018-06-16T23:10:29.777Z,17.20
2018-06-16T23:12:58.081Z,17.30
2018-06-16T23:15:26.425Z,17.10
2018-06-16T23:17:54.741Z,17.00
2018-06-16T23:20:23.070Z,16.90
2018-06-16T23:22:51.361Z,17.00
2018-06-16T23:25:19.703Z,16.90
2018-06-16T23:27:48.017Z,16.80
2018-06-16T23:30:16.345Z,16.70
2018-06-16T23:32:44.648Z,16.90
2018-06-16T23:35:12.974Z,16.90
2018-06-16T23:37:41.266Z,17.00
2018-06-16T23:40:09.601Z,17.10
2018-06-16T23:42:37.925Z,17.10
2018-06-16T23:45:06.536Z,16.90
2018-06-16T23:47:34.852Z,16.80
2018-06-16T23:50:03.207Z,16.70
2018-06-16T23:52:31.514Z,16.50
2018-06-16T23:54:59.853Z,16.30
2018-06-16T23:57:28.149Z,16.20
2018-06-16T23:59:56.474Z,16.00
